sensor_id;sensor_type;location;lat;lon;timestamp;P1;durP1;ratioP1;P2;durP2;ratioP2
2748;SDS011;1382;52.142;11.618;2023-07-31T00:00:52;5.17;;;2.17;;
2748;SDS011;1382;52.142;11.618;2023-07-31T00:03:19;4.43;;;2.00;;
2748;SDS011;1382;52.142;11.618;2023-07-31T00:05:46;2.20;;;1.37;;
2748;SDS011;1382;52.142;11.618;2023-07-31T00:08:12;5.30;;;1.80;;
2748;SDS011;1382;52.142;11.618;2023-07-31T00:10:39;3.50;;;1.43;;
2748;SDS011;1382;52.142;11.618;2023-07-31T00:13:07;2.70;;;1.80;;
2748;SDS011;1382;52.142;11.618;2023-07-31T00:15:34;2.70;;;1.47;;
2748;SDS011;1382;52.142;11.618;2023-07-31T00:18:01;4.27;;;1.90;;
2748;SDS011;1382;52.142;11.618;2023-07-31T00:20:28;4.80;;;2.23;;
2748;SDS011;1382;52.142;11.618;2023-07-31T00:22:55;3.77;;;1.73;;
2748;SDS011;1382;52.142;11.618;2023-07-31T00:25:21;7.00;;;1.67;;
2748;SDS011;1382;52.142;11.618;2023-07-31T00:27:48;4.57;;;2.13;;
2748;SDS011;1382;52.142;11.618;2023-07-31T00:30:16;3.70;;;1.60;;
2748;SDS011;1382;52.142;11.618;2023-07-31T00:32:43;4.53;;;2.00;;
2748;SDS011;1382;52.142;11.618;2023-07-31T00:35:10;5.23;;;2.47;;
2748;SDS011;1382;52.142;11.618;2023-07-31T00:37:37;5.27;;;1.97;;
2748;SDS011;1382;52.142;11.618;2023-07-31T00:40:04;4.97;;;2.00;;
2748;SDS011;1382;52.142;11.618;2023-07-31T00:42:32;6.33;;;2.23;;
2748;SDS011;1382;52.142;11.618;2023-07-31T00:44:59;5.50;;;2.10;;
2748;SDS011;1382;52.142;11.618;2023-07-31T00:47:27;3.90;;;2.07;;
2748;SDS011;1382;52.142;11.618;2023-07-31T00:49:54;8.23;;;1.73;;
2748;SDS011;1382;52.142;11.618;2023-07-31T00:52:21;7.80;;;2.00;;
2748;SDS011;1382;52.142;11.618;2023-07-31T00:54:48;6.97;;;2.10;;
2748;SDS011;1382;52.142;11.618;2023-07-31T00:57:15;6.90;;;2.13;;
2748;SDS011;1382;52.142;11.618;2023-07-31T00:59:42;6.03;;;2.10;;
2748;SDS011;1382;52.142;11.618;2023-07-31T01:02:09;6.27;;;2.90;;
2748;SDS011;1382;52.142;11.618;2023-07-31T01:04:37;3.77;;;2.10;;
2748;SDS011;1382;52.142;11.618;2023-07-31T01:07:07;3.40;;;2.23;;
2748;SDS011;1382;52.142;11.618;2023-07-31T01:09:40;4.10;;;1.80;;
2748;SDS011;1382;52.142;11.618;2023-07-31T01:12:12;5.03;;;1.70;;
2748;SDS011;1382;52.142;11.618;2023-07-31T01:14:50;9.37;;;2.50;;
2748;SDS011;1382;52.142;11.618;2023-07-31T01:17:17;6.83;;;2.17;;
2748;SDS011;1382;52.142;11.618;2023-07-31T01:19:46;4.90;;;1.60;;
2748;SDS011;1382;52.142;11.618;2023-07-31T01:22:23;7.57;;;1.97;;
2748;SDS011;1382;52.142;11.618;2023-07-31T01:25:10;3.27;;;1.63;;
2748;SDS011;1382;52.142;11.618;2023-07-31T01:27:49;2.33;;;1.70;;
2748;SDS011;1382;52.142;11.618;2023-07-31T01:30:20;2.93;;;2.03;;
2748;SDS011;1382;52.142;11.618;2023-07-31T01:32:51;3.73;;;1.73;;
2748;SDS011;1382;52.142;11.618;2023-07-31T01:35:20;9.20;;;2.03;;
2748;SDS011;1382;52.142;11.618;2023-07-31T01:37:47;2.30;;;1.40;;
2748;SDS011;1382;52.142;11.618;2023-07-31T01:40:14;5.87;;;1.50;;
2748;SDS011;1382;52.142;11.618;2023-07-31T01:42:41;5.17;;;2.00;;
2748;SDS011;1382;52.142;11.618;2023-07-31T01:45:10;2.00;;;1.40;;
2748;SDS011;1382;52.142;11.618;2023-07-31T01:47:37;5.50;;;2.43;;
2748;SDS011;1382;52.142;11.618;2023-07-31T01:50:05;3.60;;;1.80;;
2748;SDS011;1382;52.142;11.618;2023-07-31T01:52:32;2.53;;;1.40;;
2748;SDS011;1382;52.142;11.618;2023-07-31T01:54:59;8.33;;;2.20;;
2748;SDS011;1382;52.142;11.618;2023-07-31T01:57:26;2.97;;;1.50;;
2748;SDS011;1382;52.142;11.618;2023-07-31T01:59:53;7.00;;;2.50;;
2748;SDS011;1382;52.142;11.618;2023-07-31T02:02:21;3.13;;;1.60;;
2748;SDS011;1382;52.142;11.618;2023-07-31T02:04:48;4.13;;;1.77;;
2748;SDS011;1382;52.142;11.618;2023-07-31T02:07:15;4.00;;;1.97;;
2748;SDS011;1382;52.142;11.618;2023-07-31T02:09:42;4.10;;;1.53;;
2748;SDS011;1382;52.142;11.618;2023-07-31T02:12:09;4.00;;;1.93;;
2748;SDS011;1382;52.142;11.618;2023-07-31T02:14:36;4.00;;;2.00;;
2748;SDS011;1382;52.142;11.618;2023-07-31T02:17:03;2.53;;;1.50;;
2748;SDS011;1382;52.142;11.618;2023-07-31T02:19:31;6.07;;;1.67;;
2748;SDS011;1382;52.142;11.618;2023-07-31T02:21:58;5.73;;;2.50;;
2748;SDS011;1382;52.142;11.618;2023-07-31T02:24:25;5.53;;;2.70;;
2748;SDS011;1382;52.142;11.618;2023-07-31T02:26:52;5.23;;;1.90;;
2748;SDS011;1382;52.142;11.618;2023-07-31T02:29:19;3.93;;;2.00;;
2748;SDS011;1382;52.142;11.618;2023-07-31T02:31:46;7.17;;;2.47;;
2748;SDS011;1382;52.142;11.618;2023-07-31T02:34:12;4.20;;;1.97;;
2748;SDS011;1382;52.142;11.618;2023-07-31T02:36:41;7.43;;;2.23;;
2748;SDS011;1382;52.142;11.618;2023-07-31T02:39:08;7.37;;;2.00;;
2748;SDS011;1382;52.142;11.618;2023-07-31T02:41:34;4.20;;;2.63;;
2748;SDS011;1382;52.142;11.618;2023-07-31T02:44:01;1.90;;;1.50;;
2748;SDS011;1382;52.142;11.618;2023-07-31T02:46:28;4.80;;;1.63;;
2748;SDS011;1382;52.142;11.618;2023-07-31T02:48:55;5.60;;;1.70;;
2748;SDS011;1382;52.142;11.618;2023-07-31T02:51:22;2.10;;;1.33;;
2748;SDS011;1382;52.142;11.618;2023-07-31T02:53:50;2.30;;;1.43;;
2748;SDS011;1382;52.142;11.618;2023-07-31T02:56:17;3.50;;;1.40;;
2748;SDS011;1382;52.142;11.618;2023-07-31T02:58:44;3.07;;;1.50;;
2748;SDS011;1382;52.142;11.618;2023-07-31T03:01:11;4.07;;;1.40;;
2748;SDS011;1382;52.142;11.618;2023-07-31T03:03:38;2.40;;;1.70;;
2748;SDS011;1382;52.142;11.618;2023-07-31T03:06:05;7.30;;;1.20;;
2748;SDS011;1382;52.142;11.618;2023-07-31T03:08:32;2.00;;;1.30;;
2748;SDS011;1382;52.142;11.618;2023-07-31T03:11:00;2.10;;;1.27;;
2748;SDS011;1382;52.142;11.618;2023-07-31T03:13:27;2.33;;;1.60;;
2748;SDS011;1382;52.142;11.618;2023-07-31T03:15:53;1.77;;;1.20;;
2748;SDS011;1382;52.142;11.618;2023-07-31T03:18:20;5.47;;;1.50;;
2748;SDS011;1382;52.142;11.618;2023-07-31T03:20:47;3.27;;;1.30;;
2748;SDS011;1382;52.142;11.618;2023-07-31T03:23:14;1.37;;;0.90;;
2748;SDS011;1382;52.142;11.618;2023-07-31T03:25:41;1.57;;;0.90;;
2748;SDS011;1382;52.142;11.618;2023-07-31T03:28:23;1.80;;;1.27;;
2748;SDS011;1382;52.142;11.618;2023-07-31T03:30:50;2.63;;;0.70;;
2748;SDS011;1382;52.142;11.618;2023-07-31T03:33:17;1.73;;;0.93;;
2748;SDS011;1382;52.142;11.618;2023-07-31T03:35:44;1.57;;;0.70;;
2748;SDS011;1382;52.142;11.618;2023-07-31T03:38:11;2.57;;;0.80;;
2748;SDS011;1382;52.142;11.618;2023-07-31T03:40:38;1.10;;;0.80;;
2748;SDS011;1382;52.142;11.618;2023-07-31T03:43:05;1.03;;;0.77;;
2748;SDS011;1382;52.142;11.618;2023-07-31T03:45:33;1.63;;;1.10;;
2748;SDS011;1382;52.142;11.618;2023-07-31T03:48:00;1.40;;;1.00;;
2748;SDS011;1382;52.142;11.618;2023-07-31T03:50:27;1.00;;;0.70;;
2748;SDS011;1382;52.142;11.618;2023-07-31T03:52:54;1.73;;;0.93;;
2748;SDS011;1382;52.142;11.618;2023-07-31T03:55:21;1.33;;;0.97;;
2748;SDS011;1382;52.142;11.618;2023-07-31T03:57:48;0.90;;;0.60;;
2748;SDS011;1382;52.142;11.618;2023-07-31T04:00:15;1.47;;;0.83;;
2748;SDS011;1382;52.142;11.618;2023-07-31T04:02:43;0.60;;;0.47;;
2748;SDS011;1382;52.142;11.618;2023-07-31T04:05:10;0.67;;;0.63;;
2748;SDS011;1382;52.142;11.618;2023-07-31T04:07:37;1.47;;;0.50;;
2748;SDS011;1382;52.142;11.618;2023-07-31T04:10:04;1.13;;;0.97;;
2748;SDS011;1382;52.142;11.618;2023-07-31T04:12:31;2.80;;;0.60;;
2748;SDS011;1382;52.142;11.618;2023-07-31T04:14:58;1.00;;;0.40;;
2748;SDS011;1382;52.142;11.618;2023-07-31T04:17:25;0.50;;;0.50;;
2748;SDS011;1382;52.142;11.618;2023-07-31T04:19:53;0.90;;;0.67;;
2748;SDS011;1382;52.142;11.618;2023-07-31T04:22:20;1.47;;;0.60;;
2748;SDS011;1382;52.142;11.618;2023-07-31T04:24:47;4.40;;;0.90;;
2748;SDS011;1382;52.142;11.618;2023-07-31T04:27:14;2.10;;;1.90;;
2748;SDS011;1382;52.142;11.618;2023-07-31T04:29:41;0.50;;;0.40;;
2748;SDS011;1382;52.142;11.618;2023-07-31T04:32:08;0.60;;;0.50;;
2748;SDS011;1382;52.142;11.618;2023-07-31T04:34:35;1.17;;;0.57;;
2748;SDS011;1382;52.142;11.618;2023-07-31T04:37:03;0.50;;;0.50;;
2748;SDS011;1382;52.142;11.618;2023-07-31T04:39:30;0.70;;;0.60;;
2748;SDS011;1382;52.142;11.618;2023-07-31T04:41:56;1.03;;;0.60;;
2748;SDS011;1382;52.142;11.618;2023-07-31T04:44:23;0.60;;;0.53;;
2748;SDS011;1382;52.142;11.618;2023-07-31T04:46:50;1.53;;;0.90;;
2748;SDS011;1382;52.142;11.618;2023-07-31T04:49:17;1.37;;;0.80;;
2748;SDS011;1382;52.142;11.618;2023-07-31T04:51:44;1.90;;;1.00;;
2748;SDS011;1382;52.142;11.618;2023-07-31T04:54:12;1.27;;;0.77;;
2748;SDS011;1382;52.142;11.618;2023-07-31T04:56:39;1.10;;;0.60;;
2748;SDS011;1382;52.142;11.618;2023-07-31T04:59:06;1.10;;;0.77;;
2748;SDS011;1382;52.142;11.618;2023-07-31T05:01:33;9.43;;;1.20;;
2748;SDS011;1382;52.142;11.618;2023-07-31T05:04:00;4.93;;;1.00;;
2748;SDS011;1382;52.142;11.618;2023-07-31T05:06:27;1.20;;;0.93;;
2748;SDS011;1382;52.142;11.618;2023-07-31T05:08:54;2.20;;;1.10;;
2748;SDS011;1382;52.142;11.618;2023-07-31T05:11:22;2.23;;;1.30;;
2748;SDS011;1382;52.142;11.618;2023-07-31T05:13:49;2.83;;;1.03;;
2748;SDS011;1382;52.142;11.618;2023-07-31T05:16:15;2.83;;;1.30;;
2748;SDS011;1382;52.142;11.618;2023-07-31T05:18:42;2.67;;;1.40;;
2748;SDS011;1382;52.142;11.618;2023-07-31T05:21:09;2.33;;;0.80;;
2748;SDS011;1382;52.142;11.618;2023-07-31T05:23:36;2.20;;;1.53;;
2748;SDS011;1382;52.142;11.618;2023-07-31T05:26:03;3.00;;;1.40;;
2748;SDS011;1382;52.142;11.618;2023-07-31T05:28:33;3.67;;;1.40;;
2748;SDS011;1382;52.142;11.618;2023-07-31T05:31:01;1.90;;;1.30;;
2748;SDS011;1382;52.142;11.618;2023-07-31T05:33:29;1.70;;;1.23;;
2748;SDS011;1382;52.142;11.618;2023-07-31T05:35:56;1.97;;;1.30;;
2748;SDS011;1382;52.142;11.618;2023-07-31T05:38:23;4.93;;;1.40;;
2748;SDS011;1382;52.142;11.618;2023-07-31T05:40:50;2.67;;;1.27;;
2748;SDS011;1382;52.142;11.618;2023-07-31T05:43:17;3.50;;;1.30;;
2748;SDS011;1382;52.142;11.618;2023-07-31T05:45:45;3.87;;;1.00;;
2748;SDS011;1382;52.142;11.618;2023-07-31T05:48:12;3.50;;;1.40;;
2748;SDS011;1382;52.142;11.618;2023-07-31T05:50:38;1.83;;;1.20;;
2748;SDS011;1382;52.142;11.618;2023-07-31T05:53:05;4.50;;;1.23;;
2748;SDS011;1382;52.142;11.618;2023-07-31T05:55:32;2.13;;;1.00;;
2748;SDS011;1382;52.142;11.618;2023-07-31T05:57:59;3.73;;;1.10;;
2748;SDS011;1382;52.142;11.618;2023-07-31T06:00:26;3.90;;;1.13;;
2748;SDS011;1382;52.142;11.618;2023-07-31T06:02:54;1.83;;;0.87;;
2748;SDS011;1382;52.142;11.618;2023-07-31T06:05:21;1.10;;;0.80;;
2748;SDS011;1382;52.142;11.618;2023-07-31T06:07:48;4.10;;;0.90;;
2748;SDS011;1382;52.142;11.618;2023-07-31T06:10:15;5.13;;;1.03;;
2748;SDS011;1382;52.142;11.618;2023-07-31T06:12:42;1.93;;;0.97;;
2748;SDS011;1382;52.142;11.618;2023-07-31T06:15:09;1.47;;;0.90;;
2748;SDS011;1382;52.142;11.618;2023-07-31T06:17:36;1.00;;;0.87;;
2748;SDS011;1382;52.142;11.618;2023-07-31T06:20:05;3.00;;;0.90;;
2748;SDS011;1382;52.142;11.618;2023-07-31T06:22:33;1.03;;;0.70;;
2748;SDS011;1382;52.142;11.618;2023-07-31T06:24:59;1.10;;;1.00;;
2748;SDS011;1382;52.142;11.618;2023-07-31T06:27:26;1.27;;;0.80;;
2748;SDS011;1382;52.142;11.618;2023-07-31T06:29:54;1.57;;;0.63;;
2748;SDS011;1382;52.142;11.618;2023-07-31T06:32:21;2.00;;;0.77;;
2748;SDS011;1382;52.142;11.618;2023-07-31T06:34:48;3.30;;;0.60;;
2748;SDS011;1382;52.142;11.618;2023-07-31T06:37:16;1.10;;;0.80;;
2748;SDS011;1382;52.142;11.618;2023-07-31T06:39:43;1.57;;;0.80;;
2748;SDS011;1382;52.142;11.618;2023-07-31T06:42:10;1.50;;;1.10;;
2748;SDS011;1382;52.142;11.618;2023-07-31T06:44:37;1.00;;;0.67;;
2748;SDS011;1382;52.142;11.618;2023-07-31T06:47:04;1.43;;;1.03;;
2748;SDS011;1382;52.142;11.618;2023-07-31T06:49:31;0.90;;;0.70;;
2748;SDS011;1382;52.142;11.618;2023-07-31T06:51:58;2.90;;;1.00;;
2748;SDS011;1382;52.142;11.618;2023-07-31T06:54:26;2.40;;;0.93;;
2748;SDS011;1382;52.142;11.618;2023-07-31T06:56:53;1.30;;;1.00;;
2748;SDS011;1382;52.142;11.618;2023-07-31T06:59:19;0.63;;;0.63;;
2748;SDS011;1382;52.142;11.618;2023-07-31T07:01:46;2.33;;;0.80;;
2748;SDS011;1382;52.142;11.618;2023-07-31T07:04:13;1.63;;;0.70;;
2748;SDS011;1382;52.142;11.618;2023-07-31T07:06:40;1.73;;;1.33;;
2748;SDS011;1382;52.142;11.618;2023-07-31T07:09:08;2.93;;;0.90;;
2748;SDS011;1382;52.142;11.618;2023-07-31T07:11:36;1.00;;;0.70;;
2748;SDS011;1382;52.142;11.618;2023-07-31T07:14:03;1.40;;;0.80;;
2748;SDS011;1382;52.142;11.618;2023-07-31T07:16:30;2.47;;;1.03;;
2748;SDS011;1382;52.142;11.618;2023-07-31T07:18:56;1.10;;;0.70;;
2748;SDS011;1382;52.142;11.618;2023-07-31T07:21:30;1.60;;;0.77;;
2748;SDS011;1382;52.142;11.618;2023-07-31T07:23:57;1.73;;;0.80;;
2748;SDS011;1382;52.142;11.618;2023-07-31T07:26:24;1.13;;;0.70;;
2748;SDS011;1382;52.142;11.618;2023-07-31T07:28:52;2.00;;;1.00;;
2748;SDS011;1382;52.142;11.618;2023-07-31T07:31:19;1.90;;;1.60;;
2748;SDS011;1382;52.142;11.618;2023-07-31T07:33:46;2.70;;;1.30;;
2748;SDS011;1382;52.142;11.618;2023-07-31T07:36:13;2.50;;;1.27;;
2748;SDS011;1382;52.142;11.618;2023-07-31T07:38:39;1.10;;;0.90;;
2748;SDS011;1382;52.142;11.618;2023-07-31T07:41:06;2.10;;;1.20;;
2748;SDS011;1382;52.142;11.618;2023-07-31T07:43:33;1.47;;;1.33;;
2748;SDS011;1382;52.142;11.618;2023-07-31T07:46:01;2.57;;;0.90;;
2748;SDS011;1382;52.142;11.618;2023-07-31T07:48:28;3.00;;;1.10;;
2748;SDS011;1382;52.142;11.618;2023-07-31T07:50:55;2.83;;;1.00;;
2748;SDS011;1382;52.142;11.618;2023-07-31T07:53:21;0.90;;;0.80;;
2748;SDS011;1382;52.142;11.618;2023-07-31T07:55:48;1.17;;;1.07;;
2748;SDS011;1382;52.142;11.618;2023-07-31T07:58:15;1.43;;;1.10;;
2748;SDS011;1382;52.142;11.618;2023-07-31T08:00:42;1.63;;;1.23;;
2748;SDS011;1382;52.142;11.618;2023-07-31T08:03:16;1.53;;;0.90;;
2748;SDS011;1382;52.142;11.618;2023-07-31T08:05:43;1.40;;;1.27;;
2748;SDS011;1382;52.142;11.618;2023-07-31T08:08:13;3.07;;;1.07;;
2748;SDS011;1382;52.142;11.618;2023-07-31T08:10:40;2.53;;;1.03;;
2748;SDS011;1382;52.142;11.618;2023-07-31T08:13:07;2.87;;;1.27;;
2748;SDS011;1382;52.142;11.618;2023-07-31T08:15:35;1.53;;;1.40;;
2748;SDS011;1382;52.142;11.618;2023-07-31T08:18:02;3.80;;;2.10;;
2748;SDS011;1382;52.142;11.618;2023-07-31T08:20:30;3.03;;;1.57;;
2748;SDS011;1382;52.142;11.618;2023-07-31T08:22:57;2.93;;;1.27;;
2748;SDS011;1382;52.142;11.618;2023-07-31T08:25:24;3.20;;;1.20;;
2748;SDS011;1382;52.142;11.618;2023-07-31T08:27:51;6.60;;;1.90;;
2748;SDS011;1382;52.142;11.618;2023-07-31T08:30:18;5.23;;;2.03;;
2748;SDS011;1382;52.142;11.618;2023-07-31T08:32:47;3.23;;;1.90;;
2748;SDS011;1382;52.142;11.618;2023-07-31T08:35:15;3.23;;;2.20;;
2748;SDS011;1382;52.142;11.618;2023-07-31T08:37:43;7.13;;;2.60;;
2748;SDS011;1382;52.142;11.618;2023-07-31T08:40:10;4.77;;;2.93;;
2748;SDS011;1382;52.142;11.618;2023-07-31T08:42:42;8.67;;;2.77;;
2748;SDS011;1382;52.142;11.618;2023-07-31T08:45:11;5.10;;;3.00;;
2748;SDS011;1382;52.142;11.618;2023-07-31T08:47:40;6.33;;;2.90;;
2748;SDS011;1382;52.142;11.618;2023-07-31T08:50:12;6.03;;;3.40;;
2748;SDS011;1382;52.142;11.618;2023-07-31T08:52:39;7.13;;;3.23;;
2748;SDS011;1382;52.142;11.618;2023-07-31T08:55:08;3.40;;;2.67;;
2748;SDS011;1382;52.142;11.618;2023-07-31T08:57:36;7.80;;;4.00;;
2748;SDS011;1382;52.142;11.618;2023-07-31T09:00:04;6.80;;;3.80;;
2748;SDS011;1382;52.142;11.618;2023-07-31T09:02:34;6.10;;;3.93;;
2748;SDS011;1382;52.142;11.618;2023-07-31T09:05:05;4.90;;;3.53;;
2748;SDS011;1382;52.142;11.618;2023-07-31T09:07:33;6.77;;;3.30;;
2748;SDS011;1382;52.142;11.618;2023-07-31T09:10:01;9.00;;;4.83;;
2748;SDS011;1382;52.142;11.618;2023-07-31T09:12:29;7.17;;;3.67;;
2748;SDS011;1382;52.142;11.618;2023-07-31T09:14:56;8.77;;;3.97;;
2748;SDS011;1382;52.142;11.618;2023-07-31T09:17:29;6.40;;;3.83;;
2748;SDS011;1382;52.142;11.618;2023-07-31T09:19:57;6.33;;;4.43;;
2748;SDS011;1382;52.142;11.618;2023-07-31T09:22:31;8.50;;;3.90;;
2748;SDS011;1382;52.142;11.618;2023-07-31T09:25:13;7.77;;;4.20;;
2748;SDS011;1382;52.142;11.618;2023-07-31T09:27:49;9.97;;;4.33;;
2748;SDS011;1382;52.142;11.618;2023-07-31T09:30:21;5.20;;;3.30;;
2748;SDS011;1382;52.142;11.618;2023-07-31T09:32:48;6.70;;;3.90;;
2748;SDS011;1382;52.142;11.618;2023-07-31T09:35:18;7.43;;;4.40;;
2748;SDS011;1382;52.142;11.618;2023-07-31T09:37:49;7.83;;;3.70;;
2748;SDS011;1382;52.142;11.618;2023-07-31T09:40:27;6.63;;;4.27;;
2748;SDS011;1382;52.142;11.618;2023-07-31T09:42:59;6.10;;;3.73;;
2748;SDS011;1382;52.142;11.618;2023-07-31T09:45:27;8.63;;;4.10;;
2748;SDS011;1382;52.142;11.618;2023-07-31T09:48:07;4.33;;;3.37;;
2748;SDS011;1382;52.142;11.618;2023-07-31T09:50:36;4.43;;;3.17;;
2748;SDS011;1382;52.142;11.618;2023-07-31T09:53:03;5.80;;;4.67;;
2748;SDS011;1382;52.142;11.618;2023-07-31T09:55:30;6.50;;;2.97;;
2748;SDS011;1382;52.142;11.618;2023-07-31T09:57:57;5.57;;;3.77;;
2748;SDS011;1382;52.142;11.618;2023-07-31T10:00:28;5.00;;;3.53;;
2748;SDS011;1382;52.142;11.618;2023-07-31T10:02:57;5.20;;;3.37;;
2748;SDS011;1382;52.142;11.618;2023-07-31T10:05:26;5.17;;;3.10;;
2748;SDS011;1382;52.142;11.618;2023-07-31T10:07:56;5.50;;;3.37;;
2748;SDS011;1382;52.142;11.618;2023-07-31T10:10:24;5.37;;;3.40;;
2748;SDS011;1382;52.142;11.618;2023-07-31T10:12:52;5.67;;;3.87;;
2748;SDS011;1382;52.142;11.618;2023-07-31T10:15:20;4.83;;;3.40;;
2748;SDS011;1382;52.142;11.618;2023-07-31T10:17:48;3.33;;;2.67;;
2748;SDS011;1382;52.142;11.618;2023-07-31T10:20:16;5.47;;;3.30;;
2748;SDS011;1382;52.142;11.618;2023-07-31T10:22:43;5.13;;;2.90;;
2748;SDS011;1382;52.142;11.618;2023-07-31T10:25:10;7.50;;;3.43;;
2748;SDS011;1382;52.142;11.618;2023-07-31T10:27:38;5.47;;;3.00;;
2748;SDS011;1382;52.142;11.618;2023-07-31T10:30:06;4.30;;;2.83;;
2748;SDS011;1382;52.142;11.618;2023-07-31T10:32:36;8.90;;;3.73;;
2748;SDS011;1382;52.142;11.618;2023-07-31T10:35:06;7.83;;;2.97;;
2748;SDS011;1382;52.142;11.618;2023-07-31T10:37:36;4.50;;;2.63;;
2748;SDS011;1382;52.142;11.618;2023-07-31T10:40:04;7.60;;;3.73;;
2748;SDS011;1382;52.142;11.618;2023-07-31T10:42:33;6.27;;;2.63;;
2748;SDS011;1382;52.142;11.618;2023-07-31T10:45:02;6.33;;;3.27;;
2748;SDS011;1382;52.142;11.618;2023-07-31T10:47:31;6.43;;;3.03;;
2748;SDS011;1382;52.142;11.618;2023-07-31T10:50:13;4.67;;;2.30;;
2748;SDS011;1382;52.142;11.618;2023-07-31T10:52:44;6.33;;;3.63;;
2748;SDS011;1382;52.142;11.618;2023-07-31T10:55:13;3.40;;;2.53;;
2748;SDS011;1382;52.142;11.618;2023-07-31T10:57:44;5.83;;;2.87;;
2748;SDS011;1382;52.142;11.618;2023-07-31T11:00:21;4.50;;;2.23;;
2748;SDS011;1382;52.142;11.618;2023-07-31T11:02:57;5.50;;;2.43;;
2748;SDS011;1382;52.142;11.618;2023-07-31T11:05:42;2.43;;;1.90;;
2748;SDS011;1382;52.142;11.618;2023-07-31T11:08:17;4.50;;;1.77;;
2748;SDS011;1382;52.142;11.618;2023-07-31T11:10:46;3.27;;;2.17;;
2748;SDS011;1382;52.142;11.618;2023-07-31T11:13:14;4.50;;;1.80;;
2748;SDS011;1382;52.142;11.618;2023-07-31T11:15:41;3.60;;;1.67;;
2748;SDS011;1382;52.142;11.618;2023-07-31T11:18:08;2.67;;;1.93;;
2748;SDS011;1382;52.142;11.618;2023-07-31T11:20:35;3.87;;;1.83;;
2748;SDS011;1382;52.142;11.618;2023-07-31T11:23:05;2.90;;;1.90;;
2748;SDS011;1382;52.142;11.618;2023-07-31T11:25:33;3.03;;;1.70;;
2748;SDS011;1382;52.142;11.618;2023-07-31T11:28:04;3.10;;;2.10;;
2748;SDS011;1382;52.142;11.618;2023-07-31T11:30:32;4.30;;;1.77;;
2748;SDS011;1382;52.142;11.618;2023-07-31T11:33:00;3.97;;;2.93;;
2748;SDS011;1382;52.142;11.618;2023-07-31T11:35:28;4.20;;;2.50;;
2748;SDS011;1382;52.142;11.618;2023-07-31T11:37:56;9.33;;;3.00;;
2748;SDS011;1382;52.142;11.618;2023-07-31T11:40:24;5.90;;;2.87;;
2748;SDS011;1382;52.142;11.618;2023-07-31T11:42:57;3.60;;;2.80;;
2748;SDS011;1382;52.142;11.618;2023-07-31T11:45:25;3.37;;;2.43;;
2748;SDS011;1382;52.142;11.618;2023-07-31T11:47:53;5.17;;;2.07;;
2748;SDS011;1382;52.142;11.618;2023-07-31T11:50:21;2.50;;;2.03;;
2748;SDS011;1382;52.142;11.618;2023-07-31T11:52:49;5.73;;;2.50;;
2748;SDS011;1382;52.142;11.618;2023-07-31T11:55:18;3.17;;;2.47;;
2748;SDS011;1382;52.142;11.618;2023-07-31T11:57:47;5.00;;;2.20;;
2748;SDS011;1382;52.142;11.618;2023-07-31T12:00:14;3.60;;;2.30;;
2748;SDS011;1382;52.142;11.618;2023-07-31T12:02:43;3.30;;;2.23;;
2748;SDS011;1382;52.142;11.618;2023-07-31T12:05:10;3.17;;;2.20;;
2748;SDS011;1382;52.142;11.618;2023-07-31T12:07:47;3.50;;;2.40;;
2748;SDS011;1382;52.142;11.618;2023-07-31T12:10:25;3.50;;;2.30;;
2748;SDS011;1382;52.142;11.618;2023-07-31T12:13:01;5.77;;;2.60;;
2748;SDS011;1382;52.142;11.618;2023-07-31T12:15:39;3.17;;;2.03;;
2748;SDS011;1382;52.142;11.618;2023-07-31T12:18:08;2.83;;;2.57;;
2748;SDS011;1382;52.142;11.618;2023-07-31T12:20:40;3.47;;;2.40;;
2748;SDS011;1382;52.142;11.618;2023-07-31T12:23:12;3.00;;;2.43;;
2748;SDS011;1382;52.142;11.618;2023-07-31T12:25:40;3.63;;;2.73;;
2748;SDS011;1382;52.142;11.618;2023-07-31T12:28:08;3.23;;;2.33;;
2748;SDS011;1382;52.142;11.618;2023-07-31T12:30:35;3.77;;;2.30;;
2748;SDS011;1382;52.142;11.618;2023-07-31T12:33:03;3.03;;;2.53;;
2748;SDS011;1382;52.142;11.618;2023-07-31T12:35:34;3.33;;;2.20;;
2748;SDS011;1382;52.142;11.618;2023-07-31T12:38:01;3.30;;;2.20;;
2748;SDS011;1382;52.142;11.618;2023-07-31T12:40:28;3.60;;;1.97;;
2748;SDS011;1382;52.142;11.618;2023-07-31T12:43:00;3.03;;;2.53;;
2748;SDS011;1382;52.142;11.618;2023-07-31T12:45:29;2.90;;;2.23;;
2748;SDS011;1382;52.142;11.618;2023-07-31T12:47:56;3.43;;;2.47;;
2748;SDS011;1382;52.142;11.618;2023-07-31T12:50:23;3.10;;;1.93;;
2748;SDS011;1382;52.142;11.618;2023-07-31T12:52:50;3.40;;;2.00;;
2748;SDS011;1382;52.142;11.618;2023-07-31T12:55:17;3.00;;;2.60;;
2748;SDS011;1382;52.142;11.618;2023-07-31T12:57:44;3.70;;;2.10;;
2748;SDS011;1382;52.142;11.618;2023-07-31T13:00:11;3.43;;;2.20;;
2748;SDS011;1382;52.142;11.618;2023-07-31T13:02:40;4.53;;;2.17;;
2748;SDS011;1382;52.142;11.618;2023-07-31T13:05:07;4.03;;;2.53;;
2748;SDS011;1382;52.142;11.618;2023-07-31T13:07:34;3.33;;;2.90;;
2748;SDS011;1382;52.142;11.618;2023-07-31T13:10:01;3.00;;;2.20;;
2748;SDS011;1382;52.142;11.618;2023-07-31T13:12:28;3.20;;;2.50;;
2748;SDS011;1382;52.142;11.618;2023-07-31T13:14:55;4.77;;;3.20;;
2748;SDS011;1382;52.142;11.618;2023-07-31T13:17:22;3.70;;;3.27;;
2748;SDS011;1382;52.142;11.618;2023-07-31T13:19:51;3.10;;;2.57;;
2748;SDS011;1382;52.142;11.618;2023-07-31T13:22:18;5.20;;;2.80;;
2748;SDS011;1382;52.142;11.618;2023-07-31T13:24:45;3.80;;;2.73;;
2748;SDS011;1382;52.142;11.618;2023-07-31T13:27:11;4.00;;;2.97;;
2748;SDS011;1382;52.142;11.618;2023-07-31T13:29:38;2.90;;;2.60;;
2748;SDS011;1382;52.142;11.618;2023-07-31T13:32:05;3.17;;;2.80;;
2748;SDS011;1382;52.142;11.618;2023-07-31T13:34:32;3.73;;;2.70;;
2748;SDS011;1382;52.142;11.618;2023-07-31T13:37:00;7.00;;;2.97;;
2748;SDS011;1382;52.142;11.618;2023-07-31T13:39:27;4.70;;;3.60;;
2748;SDS011;1382;52.142;11.618;2023-07-31T13:41:54;3.63;;;2.80;;
2748;SDS011;1382;52.142;11.618;2023-07-31T13:44:21;3.30;;;2.97;;
2748;SDS011;1382;52.142;11.618;2023-07-31T13:46:48;4.43;;;2.80;;
2748;SDS011;1382;52.142;11.618;2023-07-31T13:49:15;6.70;;;2.60;;
2748;SDS011;1382;52.142;11.618;2023-07-31T13:51:41;8.83;;;2.23;;
2748;SDS011;1382;52.142;11.618;2023-07-31T13:54:09;5.40;;;2.53;;
2748;SDS011;1382;52.142;11.618;2023-07-31T13:56:37;2.90;;;2.23;;
2748;SDS011;1382;52.142;11.618;2023-07-31T13:59:04;6.70;;;2.50;;
2748;SDS011;1382;52.142;11.618;2023-07-31T14:01:31;3.57;;;2.50;;
2748;SDS011;1382;52.142;11.618;2023-07-31T14:03:58;2.33;;;1.80;;
2748;SDS011;1382;52.142;11.618;2023-07-31T14:06:25;7.20;;;2.37;;
2748;SDS011;1382;52.142;11.618;2023-07-31T14:08:52;6.13;;;2.07;;
2748;SDS011;1382;52.142;11.618;2023-07-31T14:11:20;6.47;;;2.80;;
2748;SDS011;1382;52.142;11.618;2023-07-31T14:13:47;3.23;;;1.93;;
2748;SDS011;1382;52.142;11.618;2023-07-31T14:16:14;3.47;;;2.33;;
2748;SDS011;1382;52.142;11.618;2023-07-31T14:18:41;3.10;;;2.33;;
2748;SDS011;1382;52.142;11.618;2023-07-31T14:21:08;4.70;;;2.27;;
2748;SDS011;1382;52.142;11.618;2023-07-31T14:23:35;4.30;;;2.50;;
2748;SDS011;1382;52.142;11.618;2023-07-31T14:26:02;5.07;;;2.70;;
2748;SDS011;1382;52.142;11.618;2023-07-31T14:28:30;4.03;;;2.40;;
2748;SDS011;1382;52.142;11.618;2023-07-31T14:30:58;7.53;;;2.97;;
2748;SDS011;1382;52.142;11.618;2023-07-31T14:33:25;3.70;;;2.13;;
2748;SDS011;1382;52.142;11.618;2023-07-31T14:35:51;8.30;;;2.60;;
2748;SDS011;1382;52.142;11.618;2023-07-31T14:38:18;2.47;;;1.80;;
2748;SDS011;1382;52.142;11.618;2023-07-31T14:40:45;2.27;;;1.90;;
2748;SDS011;1382;52.142;11.618;2023-07-31T14:43:12;4.70;;;2.20;;
2748;SDS011;1382;52.142;11.618;2023-07-31T14:45:41;5.33;;;2.17;;
2748;SDS011;1382;52.142;11.618;2023-07-31T14:48:08;3.87;;;2.07;;
2748;SDS011;1382;52.142;11.618;2023-07-31T14:50:34;3.10;;;1.80;;
2748;SDS011;1382;52.142;11.618;2023-07-31T14:53:01;1.83;;;1.70;;
2748;SDS011;1382;52.142;11.618;2023-07-31T14:55:28;2.60;;;1.83;;
2748;SDS011;1382;52.142;11.618;2023-07-31T14:57:55;1.77;;;1.23;;
2748;SDS011;1382;52.142;11.618;2023-07-31T15:00:22;4.03;;;1.83;;
2748;SDS011;1382;52.142;11.618;2023-07-31T15:02:50;2.70;;;1.50;;
2748;SDS011;1382;52.142;11.618;2023-07-31T15:05:17;3.53;;;1.70;;